sensor_id;sensor_type;location;lat;lon;timestamp;P1;durP1;ratioP1;P2;durP2;ratioP2
74900;SDS011;63461;51.416;6.758;2023-07-28T00:00:06;5.22;;;2.80;;
74900;SDS011;63461;51.416;6.758;2023-07-28T00:02:36;6.30;;;2.72;;
74900;SDS011;63461;51.416;6.758;2023-07-28T00:05:01;4.32;;;2.78;;
74900;SDS011;63461;51.416;6.758;2023-07-28T00:07:27;7.05;;;3.28;;
74900;SDS011;63461;51.416;6.758;2023-07-28T00:09:53;4.55;;;2.88;;
74900;SDS011;63461;51.416;6.758;2023-07-28T00:12:19;7.10;;;2.85;;
74900;SDS011;63461;51.416;6.758;2023-07-28T00:14:46;4.95;;;3.03;;
74900;SDS011;63461;51.416;6.758;2023-07-28T00:17:12;6.30;;;3.28;;
74900;SDS011;63461;51.416;6.758;2023-07-28T00:19:38;6.40;;;3.38;;
74900;SDS011;63461;51.416;6.758;2023-07-28T00:22:04;6.70;;;3.92;;
74900;SDS011;63461;51.416;6.758;2023-07-28T00:24:29;8.18;;;3.97;;
74900;SDS011;63461;51.416;6.758;2023-07-28T00:26:55;10.18;;;3.80;;
74900;SDS011;63461;51.416;6.758;2023-07-28T00:29:21;7.18;;;4.05;;
74900;SDS011;63461;51.416;6.758;2023-07-28T00:31:46;5.25;;;3.80;;
74900;SDS011;63461;51.416;6.758;2023-07-28T00:34:14;7.90;;;4.28;;
74900;SDS011;63461;51.416;6.758;2023-07-28T00:36:39;8.68;;;4.30;;
74900;SDS011;63461;51.416;6.758;2023-07-28T00:39:06;8.32;;;4.70;;
74900;SDS011;63461;51.416;6.758;2023-07-28T00:41:32;6.25;;;4.53;;
74900;SDS011;63461;51.416;6.758;2023-07-28T00:43:58;9.82;;;4.60;;
74900;SDS011;63461;51.416;6.758;2023-07-28T00:46:24;7.72;;;4.28;;
74900;SDS011;63461;51.416;6.758;2023-07-28T00:48:50;6.57;;;4.28;;
74900;SDS011;63461;51.416;6.758;2023-07-28T00:51:16;7.47;;;4.30;;
74900;SDS011;63461;51.416;6.758;2023-07-28T00:53:42;7.75;;;3.70;;
74900;SDS011;63461;51.416;6.758;2023-07-28T00:56:08;6.90;;;4.00;;
74900;SDS011;63461;51.416;6.758;2023-07-28T00:58:36;6.88;;;3.97;;
74900;SDS011;63461;51.416;6.758;2023-07-28T01:01:02;6.22;;;3.75;;
74900;SDS011;63461;51.416;6.758;2023-07-28T01:03:27;6.95;;;3.35;;
74900;SDS011;63461;51.416;6.758;2023-07-28T01:06:02;7.82;;;3.60;;
74900;SDS011;63461;51.416;6.758;2023-07-28T01:08:44;5.32;;;3.38;;
74900;SDS011;63461;51.416;6.758;2023-07-28T01:11:20;6.13;;;3.38;;
74900;SDS011;63461;51.416;6.758;2023-07-28T01:13:46;10.10;;;3.95;;
74900;SDS011;63461;51.416;6.758;2023-07-28T01:16:12;7.18;;;3.75;;
74900;SDS011;63461;51.416;6.758;2023-07-28T01:18:37;5.90;;;3.28;;
74900;SDS011;63461;51.416;6.758;2023-07-28T01:21:05;5.68;;;2.90;;
74900;SDS011;63461;51.416;6.758;2023-07-28T01:23:41;6.28;;;2.75;;
74900;SDS011;63461;51.416;6.758;2023-07-28T01:26:16;8.10;;;3.03;;
74900;SDS011;63461;51.416;6.758;2023-07-28T01:28:57;6.72;;;2.80;;
74900;SDS011;63461;51.416;6.758;2023-07-28T01:31:24;6.35;;;3.20;;
74900;SDS011;63461;51.416;6.758;2023-07-28T01:33:50;6.05;;;3.20;;
74900;SDS011;63461;51.416;6.758;2023-07-28T01:36:16;8.15;;;3.90;;
74900;SDS011;63461;51.416;6.758;2023-07-28T01:38:42;7.97;;;3.50;;
74900;SDS011;63461;51.416;6.758;2023-07-28T01:41:07;10.57;;;3.60;;
74900;SDS011;63461;51.416;6.758;2023-07-28T01:43:33;7.50;;;3.63;;
74900;SDS011;63461;51.416;6.758;2023-07-28T01:45:59;7.68;;;3.97;;
74900;SDS011;63461;51.416;6.758;2023-07-28T01:48:25;6.20;;;3.88;;
74900;SDS011;63461;51.416;6.758;2023-07-28T01:50:51;6.47;;;3.22;;
74900;SDS011;63461;51.416;6.758;2023-07-28T01:53:17;6.38;;;3.75;;
74900;SDS011;63461;51.416;6.758;2023-07-28T01:55:43;8.80;;;3.10;;
74900;SDS011;63461;51.416;6.758;2023-07-28T01:58:09;6.88;;;3.67;;
74900;SDS011;63461;51.416;6.758;2023-07-28T02:00:35;5.68;;;3.22;;
74900;SDS011;63461;51.416;6.758;2023-07-28T02:03:01;5.60;;;3.50;;
74900;SDS011;63461;51.416;6.758;2023-07-28T02:05:28;4.38;;;3.13;;
74900;SDS011;63461;51.416;6.758;2023-07-28T02:07:55;7.85;;;2.95;;
74900;SDS011;63461;51.416;6.758;2023-07-28T02:10:22;4.65;;;2.88;;
74900;SDS011;63461;51.416;6.758;2023-07-28T02:12:48;4.90;;;2.75;;
74900;SDS011;63461;51.416;6.758;2023-07-28T02:15:15;6.93;;;2.67;;
74900;SDS011;63461;51.416;6.758;2023-07-28T02:17:41;8.27;;;3.15;;
74900;SDS011;63461;51.416;6.758;2023-07-28T02:20:07;7.20;;;2.88;;
74900;SDS011;63461;51.416;6.758;2023-07-28T02:22:36;3.78;;;2.63;;
74900;SDS011;63461;51.416;6.758;2023-07-28T02:25:02;5.82;;;2.55;;
74900;SDS011;63461;51.416;6.758;2023-07-28T02:27:30;3.60;;;2.47;;
74900;SDS011;63461;51.416;6.758;2023-07-28T02:29:55;4.07;;;2.60;;
74900;SDS011;63461;51.416;6.758;2023-07-28T02:32:21;6.65;;;2.97;;
74900;SDS011;63461;51.416;6.758;2023-07-28T02:34:47;5.25;;;3.17;;
74900;SDS011;63461;51.416;6.758;2023-07-28T02:37:14;5.60;;;3.17;;
74900;SDS011;63461;51.416;6.758;2023-07-28T02:39:40;6.03;;;3.25;;
74900;SDS011;63461;51.416;6.758;2023-07-28T02:42:07;5.07;;;2.95;;
74900;SDS011;63461;51.416;6.758;2023-07-28T02:44:33;6.10;;;3.08;;
74900;SDS011;63461;51.416;6.758;2023-07-28T02:46:58;3.83;;;2.70;;
74900;SDS011;63461;51.416;6.758;2023-07-28T02:49:24;4.72;;;3.03;;
74900;SDS011;63461;51.416;6.758;2023-07-28T02:51:50;5.25;;;3.30;;
74900;SDS011;63461;51.416;6.758;2023-07-28T02:54:16;4.25;;;2.65;;
74900;SDS011;63461;51.416;6.758;2023-07-28T02:56:41;7.38;;;2.95;;
74900;SDS011;63461;51.416;6.758;2023-07-28T02:59:10;5.45;;;2.78;;
74900;SDS011;63461;51.416;6.758;2023-07-28T03:01:36;4.85;;;3.00;;
74900;SDS011;63461;51.416;6.758;2023-07-28T03:04:02;5.35;;;2.92;;
74900;SDS011;63461;51.416;6.758;2023-07-28T03:06:34;3.63;;;2.90;;
74900;SDS011;63461;51.416;6.758;2023-07-28T03:09:00;3.92;;;2.80;;
74900;SDS011;63461;51.416;6.758;2023-07-28T03:11:49;7.03;;;2.70;;
74900;SDS011;63461;51.416;6.758;2023-07-28T03:14:14;4.22;;;2.75;;
74900;SDS011;63461;51.416;6.758;2023-07-28T03:16:41;4.82;;;3.00;;
74900;SDS011;63461;51.416;6.758;2023-07-28T03:19:07;6.15;;;3.00;;
74900;SDS011;63461;51.416;6.758;2023-07-28T03:21:33;4.53;;;2.80;;
74900;SDS011;63461;51.416;6.758;2023-07-28T03:23:59;3.60;;;2.50;;
74900;SDS011;63461;51.416;6.758;2023-07-28T03:26:25;5.10;;;3.35;;
74900;SDS011;63461;51.416;6.758;2023-07-28T03:28:51;4.70;;;2.47;;
74900;SDS011;63461;51.416;6.758;2023-07-28T03:31:16;3.58;;;2.58;;
74900;SDS011;63461;51.416;6.758;2023-07-28T03:33:42;3.85;;;2.67;;
74900;SDS011;63461;51.416;6.758;2023-07-28T03:36:08;5.22;;;3.05;;
74900;SDS011;63461;51.416;6.758;2023-07-28T03:38:34;3.92;;;2.75;;
74900;SDS011;63461;51.416;6.758;2023-07-28T03:41:02;6.22;;;3.15;;
74900;SDS011;63461;51.416;6.758;2023-07-28T03:43:28;4.78;;;2.97;;
74900;SDS011;63461;51.416;6.758;2023-07-28T03:45:54;4.85;;;3.40;;
74900;SDS011;63461;51.416;6.758;2023-07-28T03:48:20;6.22;;;3.47;;
74900;SDS011;63461;51.416;6.758;2023-07-28T03:50:46;5.78;;;3.17;;
74900;SDS011;63461;51.416;6.758;2023-07-28T03:53:11;6.47;;;3.42;;
74900;SDS011;63461;51.416;6.758;2023-07-28T03:55:37;4.95;;;3.45;;
74900;SDS011;63461;51.416;6.758;2023-07-28T03:58:03;7.30;;;3.83;;
74900;SDS011;63461;51.416;6.758;2023-07-28T04:00:29;5.72;;;3.50;;
74900;SDS011;63461;51.416;6.758;2023-07-28T04:02:55;4.57;;;3.42;;
74900;SDS011;63461;51.416;6.758;2023-07-28T04:05:21;6.57;;;3.60;;
74900;SDS011;63461;51.416;6.758;2023-07-28T04:07:47;5.75;;;3.40;;
74900;SDS011;63461;51.416;6.758;2023-07-28T04:10:14;5.63;;;3.17;;
74900;SDS011;63461;51.416;6.758;2023-07-28T04:12:40;5.53;;;3.15;;
74900;SDS011;63461;51.416;6.758;2023-07-28T04:15:06;6.50;;;3.00;;
74900;SDS011;63461;51.416;6.758;2023-07-28T04:17:32;4.22;;;3.10;;
74900;SDS011;63461;51.416;6.758;2023-07-28T04:19:58;5.55;;;2.97;;
74900;SDS011;63461;51.416;6.758;2023-07-28T04:22:23;5.10;;;3.10;;
74900;SDS011;63461;51.416;6.758;2023-07-28T04:24:51;5.00;;;2.70;;
74900;SDS011;63461;51.416;6.758;2023-07-28T04:27:19;6.93;;;2.70;;
74900;SDS011;63461;51.416;6.758;2023-07-28T04:29:45;5.30;;;2.85;;
74900;SDS011;63461;51.416;6.758;2023-07-28T04:32:14;4.00;;;3.05;;
74900;SDS011;63461;51.416;6.758;2023-07-28T04:34:40;3.55;;;2.83;;
74900;SDS011;63461;51.416;6.758;2023-07-28T04:37:13;5.82;;;3.10;;
74900;SDS011;63461;51.416;6.758;2023-07-28T04:39:50;6.47;;;3.22;;
74900;SDS011;63461;51.416;6.758;2023-07-28T04:42:17;5.45;;;3.10;;
74900;SDS011;63461;51.416;6.758;2023-07-28T04:44:45;4.45;;;3.15;;
74900;SDS011;63461;51.416;6.758;2023-07-28T04:47:11;4.07;;;3.20;;
74900;SDS011;63461;51.416;6.758;2023-07-28T04:49:37;6.65;;;4.00;;
74900;SDS011;63461;51.416;6.758;2023-07-28T04:52:06;5.63;;;3.75;;
74900;SDS011;63461;51.416;6.758;2023-07-28T04:54:43;5.35;;;3.53;;
74900;SDS011;63461;51.416;6.758;2023-07-28T04:57:09;5.15;;;3.65;;
74900;SDS011;63461;51.416;6.758;2023-07-28T04:59:37;8.68;;;3.65;;
74900;SDS011;63461;51.416;6.758;2023-07-28T05:02:02;4.82;;;3.22;;
74900;SDS011;63461;51.416;6.758;2023-07-28T05:04:28;4.85;;;3.25;;
74900;SDS011;63461;51.416;6.758;2023-07-28T05:06:54;6.55;;;3.10;;
74900;SDS011;63461;51.416;6.758;2023-07-28T05:09:20;5.22;;;3.38;;
74900;SDS011;63461;51.416;6.758;2023-07-28T05:11:46;6.95;;;3.05;;
74900;SDS011;63461;51.416;6.758;2023-07-28T05:14:12;4.97;;;2.60;;
74900;SDS011;63461;51.416;6.758;2023-07-28T05:16:38;4.80;;;2.90;;
74900;SDS011;63461;51.416;6.758;2023-07-28T05:19:10;4.97;;;2.83;;
74900;SDS011;63461;51.416;6.758;2023-07-28T05:21:54;3.55;;;2.67;;
74900;SDS011;63461;51.416;6.758;2023-07-28T05:24:27;4.57;;;2.83;;
74900;SDS011;63461;51.416;6.758;2023-07-28T05:26:53;4.57;;;2.58;;
74900;SDS011;63461;51.416;6.758;2023-07-28T05:29:19;4.25;;;2.90;;
74900;SDS011;63461;51.416;6.758;2023-07-28T05:31:46;5.10;;;2.90;;
74900;SDS011;63461;51.416;6.758;2023-07-28T05:34:34;5.03;;;3.08;;
74900;SDS011;63461;51.416;6.758;2023-07-28T05:37:00;3.78;;;2.95;;
74900;SDS011;63461;51.416;6.758;2023-07-28T05:39:29;3.85;;;2.65;;
74900;SDS011;63461;51.416;6.758;2023-07-28T05:41:55;4.80;;;3.17;;
74900;SDS011;63461;51.416;6.758;2023-07-28T05:44:21;4.93;;;2.78;;
74900;SDS011;63461;51.416;6.758;2023-07-28T05:46:46;4.70;;;2.90;;
74900;SDS011;63461;51.416;6.758;2023-07-28T05:49:14;6.45;;;3.10;;
74900;SDS011;63461;51.416;6.758;2023-07-28T05:51:39;3.60;;;2.60;;
74900;SDS011;63461;51.416;6.758;2023-07-28T05:54:05;4.25;;;2.78;;
74900;SDS011;63461;51.416;6.758;2023-07-28T05:56:31;5.22;;;2.90;;
74900;SDS011;63461;51.416;6.758;2023-07-28T05:58:57;5.05;;;2.55;;
74900;SDS011;63461;51.416;6.758;2023-07-28T06:01:23;6.65;;;2.70;;
74900;SDS011;63461;51.416;6.758;2023-07-28T06:04:09;2.63;;;1.92;;
74900;SDS011;63461;51.416;6.758;2023-07-28T06:06:41;4.72;;;2.45;;
74900;SDS011;63461;51.416;6.758;2023-07-28T06:09:07;4.75;;;2.40;;
74900;SDS011;63461;51.416;6.758;2023-07-28T06:11:33;3.55;;;2.20;;
74900;SDS011;63461;51.416;6.758;2023-07-28T06:14:00;2.85;;;1.83;;
74900;SDS011;63461;51.416;6.758;2023-07-28T06:16:26;3.55;;;2.22;;
74900;SDS011;63461;51.416;6.758;2023-07-28T06:18:52;10.65;;;4.65;;
74900;SDS011;63461;51.416;6.758;2023-07-28T06:21:21;8.98;;;5.13;;
74900;SDS011;63461;51.416;6.758;2023-07-28T06:23:46;5.70;;;3.17;;
74900;SDS011;63461;51.416;6.758;2023-07-28T06:26:12;4.78;;;2.70;;
74900;SDS011;63461;51.416;6.758;2023-07-28T06:28:39;6.82;;;2.88;;
74900;SDS011;63461;51.416;6.758;2023-07-28T06:31:05;7.35;;;2.88;;
74900;SDS011;63461;51.416;6.758;2023-07-28T06:33:31;6.82;;;3.20;;
74900;SDS011;63461;51.416;6.758;2023-07-28T06:35:57;5.28;;;3.20;;
74900;SDS011;63461;51.416;6.758;2023-07-28T06:38:23;6.60;;;3.30;;
74900;SDS011;63461;51.416;6.758;2023-07-28T06:40:49;7.20;;;3.67;;
74900;SDS011;63461;51.416;6.758;2023-07-28T06:43:15;6.88;;;3.78;;
74900;SDS011;63461;51.416;6.758;2023-07-28T06:45:46;7.07;;;3.60;;
74900;SDS011;63461;51.416;6.758;2023-07-28T06:48:12;7.72;;;3.83;;
74900;SDS011;63461;51.416;6.758;2023-07-28T06:50:38;9.80;;;3.47;;
74900;SDS011;63461;51.416;6.758;2023-07-28T06:53:04;6.63;;;3.90;;
74900;SDS011;63461;51.416;6.758;2023-07-28T06:55:30;8.50;;;4.32;;
74900;SDS011;63461;51.416;6.758;2023-07-28T06:57:56;8.30;;;4.40;;
74900;SDS011;63461;51.416;6.758;2023-07-28T07:00:22;8.82;;;4.05;;
74900;SDS011;63461;51.416;6.758;2023-07-28T07:02:48;8.00;;;3.63;;
74900;SDS011;63461;51.416;6.758;2023-07-28T07:05:14;7.10;;;4.22;;
74900;SDS011;63461;51.416;6.758;2023-07-28T07:07:40;8.30;;;4.53;;
74900;SDS011;63461;51.416;6.758;2023-07-28T07:10:06;6.57;;;4.05;;
74900;SDS011;63461;51.416;6.758;2023-07-28T07:12:33;8.45;;;4.53;;
74900;SDS011;63461;51.416;6.758;2023-07-28T07:14:58;7.75;;;4.18;;
74900;SDS011;63461;51.416;6.758;2023-07-28T07:17:24;6.93;;;4.72;;
74900;SDS011;63461;51.416;6.758;2023-07-28T07:19:50;8.43;;;4.22;;
74900;SDS011;63461;51.416;6.758;2023-07-28T07:22:16;8.52;;;3.80;;
74900;SDS011;63461;51.416;6.758;2023-07-28T07:24:42;7.57;;;4.53;;
74900;SDS011;63461;51.416;6.758;2023-07-28T07:27:07;10.43;;;4.50;;
74900;SDS011;63461;51.416;6.758;2023-07-28T07:29:37;10.88;;;5.03;;
74900;SDS011;63461;51.416;6.758;2023-07-28T07:32:04;9.25;;;4.47;;
74900;SDS011;63461;51.416;6.758;2023-07-28T07:34:30;9.70;;;4.60;;
74900;SDS011;63461;51.416;6.758;2023-07-28T07:36:58;8.75;;;4.95;;
74900;SDS011;63461;51.416;6.758;2023-07-28T07:39:24;10.45;;;4.95;;
74900;SDS011;63461;51.416;6.758;2023-07-28T07:41:49;11.93;;;4.93;;
74900;SDS011;63461;51.416;6.758;2023-07-28T07:44:15;9.15;;;4.97;;
74900;SDS011;63461;51.416;6.758;2023-07-28T07:46:41;7.38;;;4.53;;
74900;SDS011;63461;51.416;6.758;2023-07-28T07:49:07;11.45;;;5.05;;
74900;SDS011;63461;51.416;6.758;2023-07-28T07:51:33;7.05;;;4.72;;
74900;SDS011;63461;51.416;6.758;2023-07-28T07:53:59;7.75;;;5.35;;
74900;SDS011;63461;51.416;6.758;2023-07-28T07:56:26;7.78;;;5.10;;
74900;SDS011;63461;51.416;6.758;2023-07-28T07:58:55;5.95;;;4.53;;
74900;SDS011;63461;51.416;6.758;2023-07-28T08:01:21;8.43;;;4.78;;
74900;SDS011;63461;51.416;6.758;2023-07-28T08:03:47;6.88;;;4.13;;
74900;SDS011;63461;51.416;6.758;2023-07-28T08:06:12;9.32;;;4.78;;
74900;SDS011;63461;51.416;6.758;2023-07-28T08:08:38;9.38;;;4.18;;
74900;SDS011;63461;51.416;6.758;2023-07-28T08:11:04;10.65;;;4.40;;
74900;SDS011;63461;51.416;6.758;2023-07-28T08:13:31;7.72;;;4.40;;
74900;SDS011;63461;51.416;6.758;2023-07-28T08:15:56;5.32;;;3.17;;
74900;SDS011;63461;51.416;6.758;2023-07-28T08:18:22;3.08;;;2.53;;
74900;SDS011;63461;51.416;6.758;2023-07-28T08:20:48;3.78;;;2.42;;
74900;SDS011;63461;51.416;6.758;2023-07-28T08:23:14;4.30;;;2.78;;
74900;SDS011;63461;51.416;6.758;2023-07-28T08:25:39;4.50;;;2.25;;
74900;SDS011;63461;51.416;6.758;2023-07-28T08:28:06;3.75;;;2.45;;
74900;SDS011;63461;51.416;6.758;2023-07-28T08:30:32;6.05;;;2.53;;
74900;SDS011;63461;51.416;6.758;2023-07-28T08:32:57;4.80;;;2.53;;
74900;SDS011;63461;51.416;6.758;2023-07-28T08:35:23;4.47;;;2.30;;
74900;SDS011;63461;51.416;6.758;2023-07-28T08:37:49;3.55;;;2.50;;
74900;SDS011;63461;51.416;6.758;2023-07-28T08:40:15;2.95;;;2.00;;
74900;SDS011;63461;51.416;6.758;2023-07-28T08:42:41;2.92;;;2.13;;
74900;SDS011;63461;51.416;6.758;2023-07-28T08:45:07;4.05;;;1.75;;
74900;SDS011;63461;51.416;6.758;2023-07-28T08:47:33;3.10;;;1.60;;
74900;SDS011;63461;51.416;6.758;2023-07-28T08:50:00;3.28;;;2.03;;
74900;SDS011;63461;51.416;6.758;2023-07-28T08:52:26;3.67;;;1.88;;
74900;SDS011;63461;51.416;6.758;2023-07-28T08:54:52;4.45;;;2.42;;
74900;SDS011;63461;51.416;6.758;2023-07-28T08:57:18;4.38;;;2.35;;
74900;SDS011;63461;51.416;6.758;2023-07-28T08:59:44;6.40;;;3.38;;
74900;SDS011;63461;51.416;6.758;2023-07-28T09:02:16;3.15;;;2.00;;
74900;SDS011;63461;51.416;6.758;2023-07-28T09:04:43;4.20;;;2.50;;
74900;SDS011;63461;51.416;6.758;2023-07-28T09:07:09;7.03;;;2.80;;
74900;SDS011;63461;51.416;6.758;2023-07-28T09:09:35;5.43;;;3.10;;
74900;SDS011;63461;51.416;6.758;2023-07-28T09:12:06;7.38;;;2.95;;
74900;SDS011;63461;51.416;6.758;2023-07-28T09:14:34;5.63;;;3.20;;
74900;SDS011;63461;51.416;6.758;2023-07-28T09:17:08;5.03;;;2.95;;
74900;SDS011;63461;51.416;6.758;2023-07-28T09:19:33;4.60;;;2.72;;
74900;SDS011;63461;51.416;6.758;2023-07-28T09:22:00;4.32;;;3.15;;
74900;SDS011;63461;51.416;6.758;2023-07-28T09:24:30;4.60;;;3.28;;
74900;SDS011;63461;51.416;6.758;2023-07-28T09:26:57;4.10;;;2.83;;
74900;SDS011;63461;51.416;6.758;2023-07-28T09:29:24;6.32;;;3.50;;
74900;SDS011;63461;51.416;6.758;2023-07-28T09:31:53;3.67;;;2.85;;
74900;SDS011;63461;51.416;6.758;2023-07-28T09:34:28;5.82;;;3.03;;
74900;SDS011;63461;51.416;6.758;2023-07-28T09:36:54;4.95;;;3.10;;
74900;SDS011;63461;51.416;6.758;2023-07-28T09:39:24;4.13;;;2.90;;
74900;SDS011;63461;51.416;6.758;2023-07-28T09:41:50;4.43;;;2.97;;
74900;SDS011;63461;51.416;6.758;2023-07-28T09:44:16;5.40;;;3.45;;
74900;SDS011;63461;51.416;6.758;2023-07-28T09:46:49;4.70;;;2.78;;
74900;SDS011;63461;51.416;6.758;2023-07-28T09:49:20;3.65;;;2.20;;
74900;SDS011;63461;51.416;6.758;2023-07-28T09:52:10;4.05;;;2.65;;
74900;SDS011;63461;51.416;6.758;2023-07-28T09:54:40;5.63;;;2.70;;
74900;SDS011;63461;51.416;6.758;2023-07-28T09:57:08;5.10;;;3.20;;
74900;SDS011;63461;51.416;6.758;2023-07-28T09:59:45;4.88;;;2.50;;
74900;SDS011;63461;51.416;6.758;2023-07-28T10:02:13;4.15;;;2.72;;
74900;SDS011;63461;51.416;6.758;2023-07-28T10:04:39;2.95;;;2.28;;
74900;SDS011;63461;51.416;6.758;2023-07-28T10:07:05;5.03;;;2.40;;
74900;SDS011;63461;51.416;6.758;2023-07-28T10:09:32;3.15;;;2.30;;
74900;SDS011;63461;51.416;6.758;2023-07-28T10:11:59;4.60;;;2.28;;
74900;SDS011;63461;51.416;6.758;2023-07-28T10:14:26;4.07;;;2.15;;
74900;SDS011;63461;51.416;6.758;2023-07-28T10:17:05;3.38;;;2.13;;
74900;SDS011;63461;51.416;6.758;2023-07-28T10:19:34;2.92;;;2.10;;
74900;SDS011;63461;51.416;6.758;2023-07-28T10:22:11;4.50;;;1.92;;
74900;SDS011;63461;51.416;6.758;2023-07-28T10:24:53;3.75;;;1.98;;
74900;SDS011;63461;51.416;6.758;2023-07-28T10:27:34;3.22;;;1.88;;
74900;SDS011;63461;51.416;6.758;2023-07-28T10:30:05;3.42;;;1.80;;
74900;SDS011;63461;51.416;6.758;2023-07-28T10:32:40;3.53;;;1.80;;
74900;SDS011;63461;51.416;6.758;2023-07-28T10:37:46;3.88;;;2.10;;
74900;SDS011;63461;51.416;6.758;2023-07-28T10:40:27;4.68;;;1.90;;
74900;SDS011;63461;51.416;6.758;2023-07-28T10:42:53;6.35;;;2.10;;
74900;SDS011;63461;51.416;6.758;2023-07-28T10:45:21;3.38;;;1.95;;
74900;SDS011;63461;51.416;6.758;2023-07-28T10:47:49;3.63;;;2.45;;
74900;SDS011;63461;51.416;6.758;2023-07-28T10:50:17;4.72;;;2.10;;
74900;SDS011;63461;51.416;6.758;2023-07-28T10:52:45;3.33;;;2.25;;
74900;SDS011;63461;51.416;6.758;2023-07-28T10:55:12;2.22;;;1.83;;
74900;SDS011;63461;51.416;6.758;2023-07-28T10:57:42;2.55;;;1.98;;
74900;SDS011;63461;51.416;6.758;2023-07-28T11:00:13;3.05;;;1.85;;
74900;SDS011;63461;51.416;6.758;2023-07-28T11:05:18;3.75;;;1.98;;
74900;SDS011;63461;51.416;6.758;2023-07-28T11:07:49;4.28;;;1.80;;
74900;SDS011;63461;51.416;6.758;2023-07-28T11:10:17;2.00;;;1.60;;
74900;SDS011;63461;51.416;6.758;2023-07-28T11:12:44;2.72;;;1.85;;
74900;SDS011;63461;51.416;6.758;2023-07-28T11:15:12;1.98;;;1.70;;
74900;SDS011;63461;51.416;6.758;2023-07-28T11:17:39;2.85;;;1.88;;
74900;SDS011;63461;51.416;6.758;2023-07-28T11:20:16;3.13;;;1.40;;
74900;SDS011;63461;51.416;6.758;2023-07-28T11:23:02;2.25;;;1.77;;
74900;SDS011;63461;51.416;6.758;2023-07-28T11:25:30;3.92;;;1.45;;
74900;SDS011;63461;51.416;6.758;2023-07-28T11:27:57;1.60;;;1.30;;
74900;SDS011;63461;51.416;6.758;2023-07-28T11:30:26;3.33;;;1.67;;
74900;SDS011;63461;51.416;6.758;2023-07-28T11:32:52;4.25;;;1.70;;
74900;SDS011;63461;51.416;6.758;2023-07-28T11:35:19;3.42;;;1.85;;
74900;SDS011;63461;51.416;6.758;2023-07-28T11:37:46;4.72;;;2.50;;
74900;SDS011;63461;51.416;6.758;2023-07-28T11:40:14;4.07;;;3.10;;
74900;SDS011;63461;51.416;6.758;2023-07-28T11:42:44;4.93;;;3.55;;
74900;SDS011;63461;51.416;6.758;2023-07-28T11:45:12;5.65;;;2.53;;
74900;SDS011;63461;51.416;6.758;2023-07-28T11:47:39;4.95;;;2.72;;
74900;SDS011;63461;51.416;6.758;2023-07-28T11:50:05;4.78;;;1.88;;
74900;SDS011;63461;51.416;6.758;2023-07-28T11:52:31;2.38;;;1.50;;
74900;SDS011;63461;51.416;6.758;2023-07-28T11:54:58;2.25;;;1.38;;
74900;SDS011;63461;51.416;6.758;2023-07-28T11:57:28;3.72;;;1.10;;
74900;SDS011;63461;51.416;6.758;2023-07-28T11:59:58;3.70;;;1.50;;
74900;SDS011;63461;51.416;6.758;2023-07-28T12:02:28;2.55;;;1.42;;
74900;SDS011;63461;51.416;6.758;2023-07-28T12:04:55;1.60;;;1.00;;
74900;SDS011;63461;51.416;6.758;2023-07-28T12:07:30;2.92;;;1.05;;
74900;SDS011;63461;51.416;6.758;2023-07-28T12:09:57;1.20;;;0.80;;
74900;SDS011;63461;51.416;6.758;2023-07-28T12:12:28;1.35;;;0.80;;
74900;SDS011;63461;51.416;6.758;2023-07-28T12:14:56;0.88;;;0.75;;
74900;SDS011;63461;51.416;6.758;2023-07-28T12:17:29;2.83;;;1.00;;
74900;SDS011;63461;51.416;6.758;2023-07-28T12:22:42;1.02;;;0.60;;
74900;SDS011;63461;51.416;6.758;2023-07-28T12:25:10;0.95;;;0.73;;
74900;SDS011;63461;51.416;6.758;2023-07-28T12:27:36;0.85;;;0.63;;
74900;SDS011;63461;51.416;6.758;2023-07-28T12:30:02;0.98;;;0.63;;
74900;SDS011;63461;51.416;6.758;2023-07-28T12:32:29;0.90;;;0.60;;
74900;SDS011;63461;51.416;6.758;2023-07-28T12:34:55;1.38;;;0.80;;
74900;SDS011;63461;51.416;6.758;2023-07-28T12:37:21;1.23;;;0.70;;
74900;SDS011;63461;51.416;6.758;2023-07-28T12:39:47;1.42;;;0.82;;
74900;SDS011;63461;51.416;6.758;2023-07-28T12:42:13;0.98;;;0.80;;
74900;SDS011;63461;51.416;6.758;2023-07-28T12:44:40;1.17;;;0.75;;
74900;SDS011;63461;51.416;6.758;2023-07-28T12:47:07;1.33;;;0.90;;
74900;SDS011;63461;51.416;6.758;2023-07-28T12:49:33;3.38;;;0.73;;
74900;SDS011;63461;51.416;6.758;2023-07-28T12:52:04;3.22;;;1.35;;
74900;SDS011;63461;51.416;6.758;2023-07-28T12:54:34;0.73;;;0.73;;
74900;SDS011;63461;51.416;6.758;2023-07-28T12:57:00;1.80;;;0.82;;
74900;SDS011;63461;51.416;6.758;2023-07-28T12:59:26;1.48;;;0.90;;
74900;SDS011;63461;51.416;6.758;2023-07-28T13:01:54;2.20;;;1.10;;
74900;SDS011;63461;51.416;6.758;2023-07-28T13:04:19;1.05;;;0.80;;
74900;SDS011;63461;51.416;6.758;2023-07-28T13:06:45;34.65;;;7.82;;
74900;SDS011;63461;51.416;6.758;2023-07-28T13:09:11;5.68;;;1.80;;
74900;SDS011;63461;51.416;6.758;2023-07-28T13:11:36;3.20;;;0.93;;
74900;SDS011;63461;51.416;6.758;2023-07-28T13:14:02;3.50;;;1.23;;
74900;SDS011;63461;51.416;6.758;2023-07-28T13:16:28;3.95;;;1.75;;
74900;SDS011;63461;51.416;6.758;2023-07-28T13:18:54;4.82;;;1.10;;
74900;SDS011;63461;51.416;6.758;2023-07-28T13:21:20;1.92;;;0.90;;
74900;SDS011;63461;51.416;6.758;2023-07-28T13:23:46;3.20;;;1.40;;
74900;SDS011;63461;51.416;6.758;2023-07-28T13:26:12;2.65;;;1.08;;
74900;SDS011;63461;51.416;6.758;2023-07-28T13:28:37;1.95;;;0.82;;
74900;SDS011;63461;51.416;6.758;2023-07-28T13:31:05;1.52;;;0.90;;
74900;SDS011;63461;51.416;6.758;2023-07-28T13:33:30;5.57;;;1.40;;
74900;SDS011;63461;51.416;6.758;2023-07-28T13:35:56;2.58;;;0.80;;
74900;SDS011;63461;51.416;6.758;2023-07-28T13:38:22;4.00;;;1.10;;
74900;SDS011;63461;51.416;6.758;2023-07-28T13:40:48;2.20;;;0.60;;
74900;SDS011;63461;51.416;6.758;2023-07-28T13:43:14;0.80;;;0.57;;
74900;SDS011;63461;51.416;6.758;2023-07-28T13:45:39;1.13;;;0.90;;
74900;SDS011;63461;51.416;6.758;2023-07-28T13:48:05;1.10;;;0.80;;
74900;SDS011;63461;51.416;6.758;2023-07-28T13:50:31;2.22;;;1.10;;
74900;SDS011;63461;51.416;6.758;2023-07-28T13:52:57;2.10;;;1.27;;
74900;SDS011;63461;51.416;6.758;2023-07-28T13:55:22;5.72;;;1.08;;
74900;SDS011;63461;51.416;6.758;2023-07-28T13:57:48;4.93;;;2.20;;
74900;SDS011;63461;51.416;6.758;2023-07-28T14:00:14;2.67;;;1.15;;
74900;SDS011;63461;51.416;6.758;2023-07-28T14:02:40;1.65;;;0.95;;
74900;SDS011;63461;51.416;6.758;2023-07-28T14:05:06;1.27;;;1.02;;
74900;SDS011;63461;51.416;6.758;2023-07-28T14:07:32;2.30;;;0.90;;
74900;SDS011;63461;51.416;6.758;2023-07-28T14:10:02;2.03;;;1.25;;
74900;SDS011;63461;51.416;6.758;2023-07-28T14:12:29;2.13;;;1.17;;
74900;SDS011;63461;51.416;6.758;2023-07-28T14:14:54;4.53;;;1.27;;
74900;SDS011;63461;51.416;6.758;2023-07-28T14:17:20;2.47;;;1.10;;
74900;SDS011;63461;51.416;6.758;2023-07-28T14:19:46;2.10;;;1.17;;
74900;SDS011;63461;51.416;6.758;2023-07-28T14:22:11;1.40;;;1.30;;
74900;SDS011;63461;51.416;6.758;2023-07-28T14:24:37;1.50;;;1.15;;
74900;SDS011;63461;51.416;6.758;2023-07-28T14:27:04;1.30;;;1.02;;
74900;SDS011;63461;51.416;6.758;2023-07-28T14:29:30;1.17;;;1.08;;
74900;SDS011;63461;51.416;6.758;2023-07-28T14:31:56;2.40;;;1.08;;
74900;SDS011;63461;51.416;6.758;2023-07-28T14:34:21;2.13;;;1.45;;
74900;SDS011;63461;51.416;6.758;2023-07-28T14:36:47;2.13;;;1.30;;
74900;SDS011;63461;51.416;6.758;2023-07-28T14:39:13;1.25;;;1.10;;
74900;SDS011;63461;51.416;6.758;2023-07-28T14:41:39;2.65;;;0.93;;
74900;SDS011;63461;51.416;6.758;2023-07-28T14:44:04;3.28;;;0.90;;
74900;SDS011;63461;51.416;6.758;2023-07-28T14:46:30;0.80;;;0.70;;
74900;SDS011;63461;51.416;6.758;2023-07-28T14:48:57;1.55;;;0.85;;
74900;SDS011;63461;51.416;6.758;2023-07-28T14:51:23;0.95;;;0.80;;
74900;SDS011;63461;51.416;6.758;2023-07-28T14:53:49;1.98;;;0.95;;
74900;SDS011;63461;51.416;6.758;2023-07-28T14:56:15;0.88;;;0.70;;